sensor_id;sensor_type;location;lat;lon;timestamp;temperature;humidity
11095;DHT22;5601;44.490;11.400;2022-10-16T08:24:16;20.60;99.90
11095;DHT22;5601;44.490;11.400;2022-10-16T08:26:43;20.60;99.90
11095;DHT22;5601;44.490;11.400;2022-10-16T08:29:10;20.80;99.90
11095;DHT22;5601;44.490;11.400;2022-10-16T08:31:37;20.80;99.90
11095;DHT22;5601;44.490;11.400;2022-10-16T08:34:04;20.90;99.90
11095;DHT22;5601;44.490;11.400;2022-10-16T08:36:31;21.00;99.90
11095;DHT22;5601;44.490;11.400;2022-10-16T08:38:58;21.00;99.90
11095;DHT22;5601;44.490;11.400;2022-10-16T08:44:27;21.00;99.90
11095;DHT22;5601;44.490;11.400;2022-10-16T08:46:58;21.10;99.90
11095;DHT22;5601;44.490;11.400;2022-10-16T08:49:29;21.30;99.90
11095;DHT22;5601;44.490;11.400;2022-10-16T08:51:56;21.30;99.90
11095;DHT22;5601;44.490;11.400;2022-10-16T08:54:26;21.30;99.90
11095;DHT22;5601;44.490;11.400;2022-10-16T08:56:55;21.40;99.90
11095;DHT22;5601;44.490;11.400;2022-10-16T08:59:22;21.50;99.90
11095;DHT22;5601;44.490;11.400;2022-10-16T09:01:51;21.60;99.90
11095;DHT22;5601;44.490;11.400;2022-10-16T09:07:16;21.90;99.90
11095;DHT22;5601;44.490;11.400;2022-10-16T09:09:53;21.70;99.90
11095;DHT22;5601;44.490;11.400;2022-10-16T09:12:25;21.80;99.90
11095;DHT22;5601;44.490;11.400;2022-10-16T09:14:56;21.70;99.90
11095;DHT22;5601;44.490;11.400;2022-10-16T09:17:30;21.70;99.90
11095;DHT22;5601;44.490;11.400;2022-10-16T09:20:03;21.80;99.90
11095;DHT22;5601;44.490;11.400;2022-10-16T09:22:31;21.90;99.90
11095;DHT22;5601;44.490;11.400;2022-10-16T09:24:59;22.00;99.90
11095;DHT22;5601;44.490;11.400;2022-10-16T09:27:27;22.00;99.90
11095;DHT22;5601;44.490;11.400;2022-10-16T09:29:54;22.00;99.90
11095;DHT22;5601;44.490;11.400;2022-10-16T09:32:21;22.00;99.90
11095;DHT22;5601;44.490;11.400;2022-10-16T09:34:50;21.70;99.90
11095;DHT22;5601;44.490;11.400;2022-10-16T09:37:20;21.80;99.90
11095;DHT22;5601;44.490;11.400;2022-10-16T09:39:50;21.80;99.90
11095;DHT22;5601;44.490;11.400;2022-10-16T09:42:17;21.80;99.90
11095;DHT22;5601;44.490;11.400;2022-10-16T09:44:47;21.90;99.90
11095;DHT22;5601;44.490;11.400;2022-10-16T09:47:15;22.10;99.90
11095;DHT22;5601;44.490;11.400;2022-10-16T09:49:51;22.30;99.90
11095;DHT22;5601;44.490;11.400;2022-10-16T09:52:19;22.30;99.90
11095;DHT22;5601;44.490;11.400;2022-10-16T09:54:50;22.50;99.90
11095;DHT22;5601;44.490;11.400;2022-10-16T09:57:17;22.60;99.90
11095;DHT22;5601;44.490;11.400;2022-10-16T09:59:47;22.70;99.90
11095;DHT22;5601;44.490;11.400;2022-10-16T10:02:15;22.80;99.90
11095;DHT22;5601;44.490;11.400;2022-10-16T10:04:44;22.90;99.90
11095;DHT22;5601;44.490;11.400;2022-10-16T10:07:20;22.90;99.90
11095;DHT22;5601;44.490;11.400;2022-10-16T10:09:48;23.00;99.90
11095;DHT22;5601;44.490;11.400;2022-10-16T10:12:17;23.00;99.90
11095;DHT22;5601;44.490;11.400;2022-10-16T10:14:44;23.20;99.90
11095;DHT22;5601;44.490;11.400;2022-10-16T10:17:15;23.00;99.90
11095;DHT22;5601;44.490;11.400;2022-10-16T10:19:44;23.20;99.90
11095;DHT22;5601;44.490;11.400;2022-10-16T10:22:22;23.30;99.90
11095;DHT22;5601;44.490;11.400;2022-10-16T10:27:38;23.40;99.90
11095;DHT22;5601;44.490;11.400;2022-10-16T10:30:10;23.30;99.90
11095;DHT22;5601;44.490;11.400;2022-10-16T10:32:43;23.20;99.90
11095;DHT22;5601;44.490;11.400;2022-10-16T10:35:15;23.40;99.90
11095;DHT22;5601;44.490;11.400;2022-10-16T10:37:51;23.50;99.90
11095;DHT22;5601;44.490;11.400;2022-10-16T10:40:23;23.70;99.90
11095;DHT22;5601;44.490;11.400;2022-10-16T10:42:56;23.70;99.90
11095;DHT22;5601;44.490;11.400;2022-10-16T10:45:28;23.60;99.90
11095;DHT22;5601;44.490;11.400;2022-10-16T10:48:05;23.70;99.90
11095;DHT22;5601;44.490;11.400;2022-10-16T10:50:39;23.70;99.90
11095;DHT22;5601;44.490;11.400;2022-10-16T10:53:11;23.80;99.90
11095;DHT22;5601;44.490;11.400;2022-10-16T10:55:43;23.80;99.90
11095;DHT22;5601;44.490;11.400;2022-10-16T11:00:57;23.80;99.90
11095;DHT22;5601;44.490;11.400;2022-10-16T11:03:30;24.00;99.90
11095;DHT22;5601;44.490;11.400;2022-10-16T11:06:00;24.10;99.90
11095;DHT22;5601;44.490;11.400;2022-10-16T11:08:33;24.10;99.90
11095;DHT22;5601;44.490;11.400;2022-10-16T11:11:02;24.10;99.90
11095;DHT22;5601;44.490;11.400;2022-10-16T11:13:31;24.30;99.90
11095;DHT22;5601;44.490;11.400;2022-10-16T11:16:00;24.40;99.90
11095;DHT22;5601;44.490;11.400;2022-10-16T11:18:30;24.30;99.90
11095;DHT22;5601;44.490;11.400;2022-10-16T11:21:02;24.40;99.90
11095;DHT22;5601;44.490;11.400;2022-10-16T11:23:31;24.30;99.90
11095;DHT22;5601;44.490;11.400;2022-10-16T11:26:04;24.30;99.90
11095;DHT22;5601;44.490;11.400;2022-10-16T11:28:32;24.20;99.90
11095;DHT22;5601;44.490;11.400;2022-10-16T11:31:02;24.40;99.90
11095;DHT22;5601;44.490;11.400;2022-10-16T11:33:35;24.40;99.90
11095;DHT22;5601;44.490;11.400;2022-10-16T11:36:06;24.40;99.90
11095;DHT22;5601;44.490;11.400;2022-10-16T11:38:38;24.50;99.90
11095;DHT22;5601;44.490;11.400;2022-10-16T11:41:10;24.60;99.90
11095;DHT22;5601;44.490;11.400;2022-10-16T11:43:40;24.70;99.90
11095;DHT22;5601;44.490;11.400;2022-10-16T11:46:08;24.70;99.90
11095;DHT22;5601;44.490;11.400;2022-10-16T11:48:39;24.90;99.90
11095;DHT22;5601;44.490;11.400;2022-10-16T11:51:08;24.90;99.90
11095;DHT22;5601;44.490;11.400;2022-10-16T11:53:39;24.90;99.90
11095;DHT22;5601;44.490;11.400;2022-10-16T11:56:12;24.80;99.90
11095;DHT22;5601;44.490;11.400;2022-10-16T11:58:41;24.70;99.90
11095;DHT22;5601;44.490;11.400;2022-10-16T12:01:15;24.70;99.90
11095;DHT22;5601;44.490;11.400;2022-10-16T12:03:45;24.80;99.90
11095;DHT22;5601;44.490;11.400;2022-10-16T12:06:20;24.80;99.90
11095;DHT22;5601;44.490;11.400;2022-10-16T12:08:49;24.80;99.90
11095;DHT22;5601;44.490;11.400;2022-10-16T12:11:24;24.90;99.90
11095;DHT22;5601;44.490;11.400;2022-10-16T12:13:51;24.80;99.90
11095;DHT22;5601;44.490;11.400;2022-10-16T12:16:22;24.70;99.90
11095;DHT22;5601;44.490;11.400;2022-10-16T12:18:49;24.80;99.90
11095;DHT22;5601;44.490;11.400;2022-10-16T12:21:30;24.80;99.90
11095;DHT22;5601;44.490;11.400;2022-10-16T12:23:58;24.80;99.90
11095;DHT22;5601;44.490;11.400;2022-10-16T12:26:27;24.80;99.90
11095;DHT22;5601;44.490;11.400;2022-10-16T12:28:55;24.90;99.90
11095;DHT22;5601;44.490;11.400;2022-10-16T12:31:22;24.90;99.90
11095;DHT22;5601;44.490;11.400;2022-10-16T12:33:55;24.80;99.90
11095;DHT22;5601;44.490;11.400;2022-10-16T12:36:26;24.70;99.90
11095;DHT22;5601;44.490;11.400;2022-10-16T12:38:54;24.80;99.90
11095;DHT22;5601;44.490;11.400;2022-10-16T12:41:25;24.70;99.90
11095;DHT22;5601;44.490;11.400;2022-10-16T12:43:54;24.60;99.90
11095;DHT22;5601;44.490;11.400;2022-10-16T12:46:23;24.60;99.90
11095;DHT22;5601;44.490;11.400;2022-10-16T12:48:50;24.60;99.90
11095;DHT22;5601;44.490;11.400;2022-10-16T12:51:22;24.60;99.90
11095;DHT22;5601;44.490;11.400;2022-10-16T12:53:57;24.70;99.90
11095;DHT22;5601;44.490;11.400;2022-10-16T12:56:26;24.80;99.90
11095;DHT22;5601;44.490;11.400;2022-10-16T12:58:59;24.70;99.90
11095;DHT22;5601;44.490;11.400;2022-10-16T13:01:40;24.60;99.90
11095;DHT22;5601;44.490;11.400;2022-10-16T13:04:15;24.50;99.90
11095;DHT22;5601;44.490;11.400;2022-10-16T13:06:45;24.40;99.90
11095;DHT22;5601;44.490;11.400;2022-10-16T13:09:20;24.30;99.90
11095;DHT22;5601;44.490;11.400;2022-10-16T13:11:57;24.20;99.90
11095;DHT22;5601;44.490;11.400;2022-10-16T13:14:39;24.20;99.90
11095;DHT22;5601;44.490;11.400;2022-10-16T13:17:10;24.20;99.90
11095;DHT22;5601;44.490;11.400;2022-10-16T13:19:42;24.20;99.90
11095;DHT22;5601;44.490;11.400;2022-10-16T13:22:13;24.20;99.90
11095;DHT22;5601;44.490;11.400;2022-10-16T13:24:48;24.20;99.90
11095;DHT22;5601;44.490;11.400;2022-10-16T13:27:20;24.20;99.90
11095;DHT22;5601;44.490;11.400;2022-10-16T13:29:52;24.20;99.90
11095;DHT22;5601;44.490;11.400;2022-10-16T13:32:20;24.30;99.90
11095;DHT22;5601;44.490;11.400;2022-10-16T13:34:48;24.30;99.90
11095;DHT22;5601;44.490;11.400;2022-10-16T13:37:19;24.40;99.90
11095;DHT22;5601;44.490;11.400;2022-10-16T13:39:47;24.40;99.90
11095;DHT22;5601;44.490;11.400;2022-10-16T13:42:20;24.30;99.90
11095;DHT22;5601;44.490;11.400;2022-10-16T13:44:49;24.30;99.90
11095;DHT22;5601;44.490;11.400;2022-10-16T13:47:18;24.20;99.90
11095;DHT22;5601;44.490;11.400;2022-10-16T13:49:45;24.10;99.90
11095;DHT22;5601;44.490;11.400;2022-10-16T13:52:17;24.20;99.90
11095;DHT22;5601;44.490;11.400;2022-10-16T13:54:44;24.30;99.90
11095;DHT22;5601;44.490;11.400;2022-10-16T13:57:12;24.50;99.90
11095;DHT22;5601;44.490;11.400;2022-10-16T13:59:40;24.50;99.90
11095;DHT22;5601;44.490;11.400;2022-10-16T14:02:10;24.50;99.90
11095;DHT22;5601;44.490;11.400;2022-10-16T14:04:42;24.50;99.90
11095;DHT22;5601;44.490;11.400;2022-10-16T14:07:12;24.40;99.90
11095;DHT22;5601;44.490;11.400;2022-10-16T14:09:40;24.40;99.90
11095;DHT22;5601;44.490;11.400;2022-10-16T14:12:08;24.30;99.90
11095;DHT22;5601;44.490;11.400;2022-10-16T14:14:42;24.40;99.90
11095;DHT22;5601;44.490;11.400;2022-10-16T14:17:13;24.50;99.90
11095;DHT22;5601;44.490;11.400;2022-10-16T14:19:45;24.60;99.90
11095;DHT22;5601;44.490;11.400;2022-10-16T14:22:18;24.60;99.90
11095;DHT22;5601;44.490;11.400;2022-10-16T14:24:47;24.60;99.90
11095;DHT22;5601;44.490;11.400;2022-10-16T14:27:20;24.60;99.90
11095;DHT22;5601;44.490;11.400;2022-10-16T14:29:50;24.60;99.90
11095;DHT22;5601;44.490;11.400;2022-10-16T14:32:21;24.60;99.90
11095;DHT22;5601;44.490;11.400;2022-10-16T14:34:53;24.60;99.90
11095;DHT22;5601;44.490;11.400;2022-10-16T14:37:22;24.40;99.90
11095;DHT22;5601;44.490;11.400;2022-10-16T14:39:50;24.30;99.90
11095;DHT22;5601;44.490;11.400;2022-10-16T14:42:18;24.20;99.90
11095;DHT22;5601;44.490;11.400;2022-10-16T14:44:45;24.20;99.90
11095;DHT22;5601;44.490;11.400;2022-10-16T14:47:13;24.10;99.90
11095;DHT22;5601;44.490;11.400;2022-10-16T14:49:41;24.10;99.90
11095;DHT22;5601;44.490;11.400;2022-10-16T14:52:10;24.00;99.90
11095;DHT22;5601;44.490;11.400;2022-10-16T14:54:37;23.90;99.90
11095;DHT22;5601;44.490;11.400;2022-10-16T14:57:04;23.90;99.90
11095;DHT22;5601;44.490;11.400;2022-10-16T14:59:32;23.90;99.90
11095;DHT22;5601;44.490;11.400;2022-10-16T15:02:00;23.90;99.90
11095;DHT22;5601;44.490;11.400;2022-10-16T15:04:29;23.80;99.90
11095;DHT22;5601;44.490;11.400;2022-10-16T15:06:56;23.80;99.90
11095;DHT22;5601;44.490;11.400;2022-10-16T15:09:24;23.80;99.90
11095;DHT22;5601;44.490;11.400;2022-10-16T15:11:53;23.80;99.90
11095;DHT22;5601;44.490;11.400;2022-10-16T15:14:20;23.80;99.90
11095;DHT22;5601;44.490;11.400;2022-10-16T15:16:47;23.80;99.90
11095;DHT22;5601;44.490;11.400;2022-10-16T15:19:14;23.80;99.90
11095;DHT22;5601;44.490;11.400;2022-10-16T15:21:41;23.80;99.90
11095;DHT22;5601;44.490;11.400;2022-10-16T15:24:09;23.80;99.90
11095;DHT22;5601;44.490;11.400;2022-10-16T15:26:39;23.70;99.90
11095;DHT22;5601;44.490;11.400;2022-10-16T15:29:06;23.70;99.90
11095;DHT22;5601;44.490;11.400;2022-10-16T15:31:33;23.60;99.90
11095;DHT22;5601;44.490;11.400;2022-10-16T15:34:01;23.60;99.90
11095;DHT22;5601;44.490;11.400;2022-10-16T15:36:30;23.50;99.90
11095;DHT22;5601;44.490;11.400;2022-10-16T15:38:59;23.50;99.90
11095;DHT22;5601;44.490;11.400;2022-10-16T15:41:26;23.40;99.90
11095;DHT22;5601;44.490;11.400;2022-10-16T15:43:55;23.40;99.90
11095;DHT22;5601;44.490;11.400;2022-10-16T15:46:22;23.40;99.90
11095;DHT22;5601;44.490;11.400;2022-10-16T15:48:49;23.30;99.90
11095;DHT22;5601;44.490;11.400;2022-10-16T15:51:16;23.30;99.90
11095;DHT22;5601;44.490;11.400;2022-10-16T15:53:44;23.20;99.90
11095;DHT22;5601;44.490;11.400;2022-10-16T15:56:11;23.20;99.90
11095;DHT22;5601;44.490;11.400;2022-10-16T15:58:38;23.10;99.90
11095;DHT22;5601;44.490;11.400;2022-10-16T16:01:07;23.00;99.90
11095;DHT22;5601;44.490;11.400;2022-10-16T16:03:35;22.90;99.90
11095;DHT22;5601;44.490;11.400;2022-10-16T16:06:04;22.80;99.90
11095;DHT22;5601;44.490;11.400;2022-10-16T16:08:31;22.80;99.90
11095;DHT22;5601;44.490;11.400;2022-10-16T16:10:59;22.70;99.90
11095;DHT22;5601;44.490;11.400;2022-10-16T16:13:26;22.60;99.90
11095;DHT22;5601;44.490;11.400;2022-10-16T16:15:53;22.50;99.90
11095;DHT22;5601;44.490;11.400;2022-10-16T16:18:21;22.50;99.90
11095;DHT22;5601;44.490;11.400;2022-10-16T16:20:49;22.40;99.90
11095;DHT22;5601;44.490;11.400;2022-10-16T16:23:16;22.30;99.90
11095;DHT22;5601;44.490;11.400;2022-10-16T16:25:44;22.20;99.90
11095;DHT22;5601;44.490;11.400;2022-10-16T16:28:11;22.10;99.90
11095;DHT22;5601;44.490;11.400;2022-10-16T16:30:39;22.00;99.90
11095;DHT22;5601;44.490;11.400;2022-10-16T16:33:06;21.90;99.90
11095;DHT22;5601;44.490;11.400;2022-10-16T16:35:35;21.80;99.90
11095;DHT22;5601;44.490;11.400;2022-10-16T16:38:02;21.60;99.90
11095;DHT22;5601;44.490;11.400;2022-10-16T16:40:29;21.50;99.90
11095;DHT22;5601;44.490;11.400;2022-10-16T16:42:56;21.40;99.90
11095;DHT22;5601;44.490;11.400;2022-10-16T16:45:23;21.30;99.90
11095;DHT22;5601;44.490;11.400;2022-10-16T16:47:50;21.20;99.90
11095;DHT22;5601;44.490;11.400;2022-10-16T16:50:17;21.00;99.90
11095;DHT22;5601;44.490;11.400;2022-10-16T16:52:46;21.00;99.90
11095;DHT22;5601;44.490;11.400;2022-10-16T16:55:13;20.90;99.90
11095;DHT22;5601;44.490;11.400;2022-10-16T16:57:40;20.80;99.90
11095;DHT22;5601;44.490;11.400;2022-10-16T17:00:07;20.80;99.90
11095;DHT22;5601;44.490;11.400;2022-10-16T17:02:35;20.90;99.90
11095;DHT22;5601;44.490;11.400;2022-10-16T17:05:02;21.10;99.90
11095;DHT22;5601;44.490;11.400;2022-10-16T17:07:30;21.20;99.90
11095;DHT22;5601;44.490;11.400;2022-10-16T17:09:59;21.30;99.90
11095;DHT22;5601;44.490;11.400;2022-10-16T17:12:26;21.30;99.90
11095;DHT22;5601;44.490;11.400;2022-10-16T17:14:54;21.40;99.90
11095;DHT22;5601;44.490;11.400;2022-10-16T17:17:21;21.30;99.90
11095;DHT22;5601;44.490;11.400;2022-10-16T17:19:49;21.30;99.90
11095;DHT22;5601;44.490;11.400;2022-10-16T17:22:16;21.20;99.90
11095;DHT22;5601;44.490;11.400;2022-10-16T23:26:39;15.90;99.90
11095;DHT22;5601;44.490;11.400;2022-10-16T23:29:06;15.90;99.90
11095;DHT22;5601;44.490;11.400;2022-10-16T23:31:33;15.90;99.90
11095;DHT22;5601;44.490;11.400;2022-10-16T23:34:00;15.90;99.90
11095;DHT22;5601;44.490;11.400;2022-10-16T23:36:27;15.90;99.90
11095;DHT22;5601;44.490;11.400;2022-10-16T23:38:54;16.00;99.90
11095;DHT22;5601;44.490;11.400;2022-10-16T23:41:21;15.90;99.90
11095;DHT22;5601;44.490;11.400;2022-10-16T23:43:50;15.90;99.90
11095;DHT22;5601;44.490;11.400;2022-10-16T23:46:18;15.80;99.90
11095;DHT22;5601;44.490;11.400;2022-10-16T23:48:45;15.80;99.90
11095;DHT22;5601;44.490;11.400;2022-10-16T23:51:12;15.80;99.90
11095;DHT22;5601;44.490;11.400;2022-10-16T23:53:39;15.80;99.90
11095;DHT22;5601;44.490;11.400;2022-10-16T23:56:06;15.80;99.90
11095;DHT22;5601;44.490;11.400;2022-10-16T23:58:34;15.90;99.90
